createdAt,value
2018-12-15T00:02:03.528Z,5.34
2018-12-15T00:04:29.577Z,5.47
2018-12-15T00:06:55.587Z,5.56
2018-12-15T00:09:21.549Z,5.74
2018-12-15T00:11:54.661Z,5.64
2018-12-15T00:14:20.619Z,5.69
2018-12-15T00:16:46.663Z,5.75
2018-12-15T00:19:12.684Z,5.72
2018-12-15T00:21:38.901Z,5.67
2018-12-15T00:24:04.887Z,5.66
2018-12-15T00:26:30.915Z,5.61
2018-12-15T00:28:57.173Z,5.83
2018-12-15T00:31:23.151Z,5.52
2018-12-15T00:33:49.152Z,5.13
2018-12-15T00:36:15.114Z,5.31
2018-12-15T00:38:41.168Z,5.53
2018-12-15T00:41:07.125Z,5.39
2018-12-15T00:43:33.094Z,5.56
2018-12-15T00:45:59.096Z,5.59
2018-12-15T00:48:25.040Z,5.55
2018-12-15T00:50:51.045Z,5.49
2018-12-15T00:53:17.462Z,5.30
2018-12-15T00:55:43.460Z,5.50
2018-12-15T00:58:09.511Z,5.67
2018-12-15T01:00:35.626Z,5.67
2018-12-15T01:03:01.681Z,5.57
2018-12-15T01:05:27.685Z,5.38
2018-12-15T01:07:53.695Z,5.61
2018-12-15T01:10:19.741Z,5.43
2018-12-15T01:12:45.753Z,5.24
2018-12-15T01:15:11.725Z,5.44
2018-12-15T01:17:37.688Z,5.27
2018-12-15T01:20:04.375Z,5.49
2018-12-15T01:22:30.507Z,5.39
2018-12-15T01:24:56.538Z,5.13
2018-12-15T01:27:22.552Z,5.31
2018-12-15T01:29:49.243Z,5.11
2018-12-15T01:32:15.230Z,4.98
2018-12-15T01:34:41.237Z,4.85
2018-12-15T01:37:07.202Z,5.14
2018-12-15T01:39:33.205Z,5.41
2018-12-15T01:41:59.177Z,5.02
2018-12-15T01:44:25.226Z,5.23
2018-12-15T01:46:51.288Z,5.40
2018-12-15T01:49:17.273Z,5.41
2018-12-15T01:51:43.273Z,5.08
2018-12-15T01:54:09.249Z,5.26
2018-12-15T01:56:35.231Z,5.44
2018-12-15T01:59:01.261Z,5.52
2018-12-15T02:01:27.203Z,5.59
2018-12-15T02:03:53.165Z,5.01
2018-12-15T02:06:19.292Z,5.01
2018-12-15T02:08:45.261Z,5.04
2018-12-15T02:11:11.276Z,5.27
2018-12-15T02:13:37.262Z,5.24
2018-12-15T02:16:03.209Z,5.61
2018-12-15T02:18:29.211Z,5.75
2018-12-15T02:20:55.263Z,5.56
2018-12-15T02:23:21.208Z,5.31
2018-12-15T02:25:47.220Z,4.94
2018-12-15T02:28:13.310Z,5.30
2018-12-15T02:30:39.308Z,4.95
2018-12-15T02:33:05.312Z,4.96
2018-12-15T02:35:31.543Z,5.04
2018-12-15T02:37:57.563Z,4.90
2018-12-15T02:40:23.548Z,5.04
2018-12-15T02:42:49.662Z,4.92
2018-12-15T02:45:15.651Z,4.92
2018-12-15T02:47:42.123Z,5.27
2018-12-15T02:50:08.257Z,4.99
2018-12-15T02:52:34.218Z,5.01
2018-12-15T02:55:00.204Z,5.12
2018-12-15T02:57:26.304Z,4.84
2018-12-15T02:59:52.300Z,5.25
2018-12-15T03:02:18.281Z,5.17
2018-12-15T03:04:44.278Z,5.18
2018-12-15T03:07:10.244Z,5.29
2018-12-15T03:09:36.350Z,5.06
2018-12-15T03:12:02.307Z,5.08
2018-12-15T03:14:28.299Z,4.80
2018-12-15T03:17:02.502Z,5.06
2018-12-15T03:19:28.536Z,4.97
2018-12-15T03:21:54.488Z,5.06
2018-12-15T03:24:20.505Z,5.31
2018-12-15T03:26:51.284Z,5.17
2018-12-15T03:29:17.501Z,5.09
2018-12-15T03:31:43.490Z,4.91
2018-12-15T03:34:09.433Z,4.74
2018-12-15T03:36:35.452Z,5.19
2018-12-15T03:39:01.460Z,5.01
2018-12-15T03:41:27.435Z,5.53
2018-12-15T03:43:53.560Z,5.33
2018-12-15T03:46:19.510Z,4.76
2018-12-15T03:48:45.496Z,4.86
2018-12-15T03:51:11.448Z,4.97
2018-12-15T03:53:37.444Z,5.19
2018-12-15T03:56:03.928Z,4.91
2018-12-15T03:58:30.029Z,5.41
2018-12-15T04:00:55.994Z,5.73
2018-12-15T04:03:22.001Z,5.72
2018-12-15T04:05:47.960Z,5.41
2018-12-15T04:08:13.965Z,5.76
2018-12-15T04:10:39.968Z,5.38
2018-12-15T04:13:05.982Z,5.48
2018-12-15T04:15:31.967Z,5.27
2018-12-15T04:18:03.724Z,5.30
2018-12-15T04:20:25.969Z,5.62
2018-12-15T04:22:51.949Z,5.80
2018-12-15T04:25:17.958Z,5.74
2018-12-15T04:27:44.045Z,5.69
2018-12-15T04:30:10.037Z,5.80
2018-12-15T04:32:36.020Z,5.69
2018-12-15T04:35:02.159Z,5.64
2018-12-15T04:37:28.117Z,5.80
2018-12-15T04:39:54.108Z,5.95
2018-12-15T04:42:20.057Z,5.56
2018-12-15T04:44:46.038Z,5.77
2018-12-15T04:47:12.520Z,5.74
2018-12-15T04:49:38.585Z,5.77
2018-12-15T04:52:11.634Z,5.88
2018-12-15T04:54:37.615Z,5.59
2018-12-15T04:57:03.673Z,5.47
2018-12-15T04:59:30.377Z,5.10
2018-12-15T05:01:56.463Z,5.32
2018-12-15T05:04:22.445Z,5.33
2018-12-15T05:06:48.449Z,5.55
2018-12-15T05:09:14.421Z,5.66
2018-12-15T05:11:40.509Z,5.71
2018-12-15T05:14:06.481Z,5.56
2018-12-15T05:16:32.490Z,5.47
2018-12-15T05:18:58.485Z,5.65
2018-12-15T05:21:24.550Z,5.58
2018-12-15T05:23:50.520Z,5.34
2018-12-15T05:26:16.492Z,5.47
2018-12-15T05:28:43.049Z,5.31
2018-12-15T05:31:09.415Z,5.54
2018-12-15T05:33:35.729Z,5.30
2018-12-15T05:36:02.073Z,5.39
2018-12-15T05:38:28.136Z,5.31
2018-12-15T05:40:54.160Z,5.54
2018-12-15T05:43:20.795Z,5.61
2018-12-15T05:45:46.786Z,5.67
2018-12-15T05:48:12.762Z,5.65
2018-12-15T05:50:38.755Z,5.66
2018-12-15T05:53:04.721Z,5.58
2018-12-15T05:55:30.732Z,5.50
2018-12-15T05:57:56.767Z,5.45
2018-12-15T06:00:22.894Z,5.60
2018-12-15T06:02:48.981Z,5.48
2018-12-15T06:05:15.132Z,5.66
2018-12-15T06:07:41.145Z,5.49
2018-12-15T06:10:07.144Z,5.37
2018-12-15T06:12:33.129Z,5.58
2018-12-15T06:14:59.122Z,5.61
2018-12-15T06:17:25.139Z,5.61
2018-12-15T06:19:58.094Z,5.71
2018-12-15T06:22:24.086Z,5.52
2018-12-15T06:24:50.059Z,5.26
2018-12-15T06:27:16.084Z,5.40
2018-12-15T06:29:42.046Z,5.58
2018-12-15T06:32:08.048Z,5.56
2018-12-15T06:34:41.076Z,5.53
2018-12-15T06:37:07.068Z,5.54
2018-12-15T06:39:33.028Z,5.54
2018-12-15T06:41:58.988Z,5.64
2018-12-15T06:44:25.000Z,5.62
2018-12-15T06:46:50.978Z,5.65
2018-12-15T06:49:16.973Z,5.56
2018-12-15T06:51:42.932Z,5.66
2018-12-15T06:54:08.922Z,5.61
2018-12-15T06:56:34.876Z,5.65
2018-12-15T06:59:00.944Z,5.48
2018-12-15T07:01:27.376Z,5.60
2018-12-15T07:03:53.354Z,5.56
2018-12-15T07:06:19.360Z,5.59
2018-12-15T07:08:45.433Z,5.53
2018-12-15T07:11:11.702Z,5.48
2018-12-15T07:13:37.687Z,5.53
2018-12-15T07:16:03.685Z,5.55
2018-12-15T07:18:29.727Z,5.38
2018-12-15T07:21:02.724Z,5.39
2018-12-15T07:23:28.875Z,5.42
2018-12-15T07:25:55.179Z,5.23
2018-12-15T07:28:21.348Z,5.31
2018-12-15T07:30:47.366Z,5.42
2018-12-15T07:33:13.327Z,5.51
2018-12-15T07:35:39.342Z,5.42
2018-12-15T07:38:05.328Z,5.31
2018-12-15T07:40:31.397Z,5.21
2018-12-15T07:42:57.352Z,5.29
2018-12-15T07:45:23.323Z,5.16
2018-12-15T07:47:49.303Z,5.38
2018-12-15T07:50:15.307Z,5.38
2018-12-15T07:52:44.609Z,5.27
2018-12-15T07:55:10.803Z,5.19
2018-12-15T07:57:36.787Z,5.33
2018-12-15T08:00:05.178Z,4.94
2018-12-15T08:02:31.131Z,4.65
2018-12-15T08:04:57.158Z,4.98
2018-12-15T08:07:23.147Z,5.22
2018-12-15T08:09:50.336Z,5.04
2018-12-15T08:12:22.392Z,4.91
2018-12-15T08:14:48.404Z,5.01
2018-12-15T08:17:14.362Z,5.18
2018-12-15T08:19:40.410Z,5.22
2018-12-15T08:22:06.384Z,5.43
2018-12-15T08:24:32.419Z,5.57
2018-12-15T08:26:58.497Z,5.65
2018-12-15T08:29:24.480Z,5.34
2018-12-15T08:31:50.472Z,5.39
2018-12-15T08:34:16.478Z,5.31
2018-12-15T08:36:42.479Z,4.92
2018-12-15T08:39:08.459Z,4.91
2018-12-15T08:41:34.464Z,4.94
2018-12-15T08:44:00.629Z,4.94
2018-12-15T08:46:26.638Z,5.21
2018-12-15T08:48:52.624Z,5.09
2018-12-15T08:51:18.754Z,5.21
2018-12-15T08:53:44.756Z,5.47
2018-12-15T08:56:10.820Z,5.25
2018-12-15T08:58:36.890Z,5.38
2018-12-15T09:01:02.960Z,5.60
2018-12-15T09:03:28.912Z,5.31
2018-12-15T09:05:54.902Z,5.33
2018-12-15T09:08:20.880Z,5.26
2018-12-15T09:10:46.886Z,5.39
2018-12-15T09:13:12.980Z,5.14
2018-12-15T09:15:38.986Z,5.28
2018-12-15T09:18:05.073Z,5.19
2018-12-15T09:20:31.154Z,5.39
2018-12-15T09:22:57.154Z,4.77
2018-12-15T09:25:23.113Z,5.12
2018-12-15T09:27:49.139Z,5.31
2018-12-15T09:30:15.101Z,5.50
2018-12-15T09:32:41.129Z,5.48
2018-12-15T09:35:07.106Z,5.41
2018-12-15T09:37:33.089Z,5.46
2018-12-15T09:39:59.058Z,5.44
2018-12-15T09:42:25.051Z,5.56
2018-12-15T09:44:51.054Z,5.59
2018-12-15T09:47:17.009Z,5.46
2018-12-15T09:49:43.018Z,5.57
2018-12-15T09:52:08.991Z,5.69
2018-12-15T09:54:34.974Z,5.26
2018-12-15T09:57:01.056Z,5.55
2018-12-15T09:59:27.120Z,5.40
2018-12-15T10:01:53.130Z,5.66
2018-12-15T10:04:19.118Z,5.54
2018-12-15T10:06:45.082Z,5.54
2018-12-15T10:09:11.083Z,5.48
2018-12-15T10:11:37.059Z,5.66
2018-12-15T10:14:03.055Z,5.72
2018-12-15T10:16:29.019Z,5.61
2018-12-15T10:18:55.039Z,5.85
2018-12-15T10:21:21.049Z,5.69
2018-12-15T10:23:47.091Z,5.80
2018-12-15T10:26:13.079Z,5.83
2018-12-15T10:28:39.049Z,5.59
2018-12-15T10:31:11.127Z,5.70
2018-12-15T10:33:37.179Z,5.73
2018-12-15T10:36:03.182Z,5.83
2018-12-15T10:38:29.144Z,5.59
2018-12-15T10:40:55.164Z,5.72
2018-12-15T10:43:21.696Z,5.53
2018-12-15T10:45:47.770Z,5.66
2018-12-15T10:48:13.721Z,5.73
2018-12-15T10:50:39.722Z,5.56
2018-12-15T10:53:05.695Z,5.68
2018-12-15T10:55:31.708Z,5.81
2018-12-15T10:57:57.730Z,5.83
2018-12-15T11:00:25.776Z,5.89
2018-12-15T11:02:51.796Z,5.47
2018-12-15T11:05:17.878Z,5.61
2018-12-15T11:07:43.843Z,5.77
2018-12-15T11:10:09.824Z,5.65
2018-12-15T11:12:35.789Z,5.65
2018-12-15T11:15:01.803Z,5.61
2018-12-15T11:17:27.868Z,5.71
2018-12-15T11:19:53.820Z,5.71
2018-12-15T11:22:20.305Z,5.68
2018-12-15T11:24:46.273Z,5.73
2018-12-15T11:27:12.393Z,5.74
2018-12-15T11:29:38.423Z,5.85
2018-12-15T11:32:04.421Z,5.62
2018-12-15T11:34:31.422Z,5.76
2018-12-15T11:36:57.488Z,5.69
2018-12-15T11:39:23.547Z,5.62
2018-12-15T11:41:49.522Z,5.66
2018-12-15T11:44:15.534Z,5.75
2018-12-15T11:46:41.540Z,5.71
2018-12-15T11:49:07.516Z,5.65
2018-12-15T11:51:33.542Z,5.71
2018-12-15T11:53:59.518Z,5.72
2018-12-15T11:56:25.524Z,5.68
2018-12-15T11:58:51.581Z,5.80
2018-12-15T12:01:17.656Z,5.76
2018-12-15T12:03:43.659Z,5.72
2018-12-15T12:06:09.704Z,5.37
2018-12-15T12:08:35.694Z,5.43
2018-12-15T12:11:01.674Z,5.65
2018-12-15T12:13:27.707Z,5.75
2018-12-15T12:15:53.659Z,5.58
2018-12-15T12:18:19.641Z,5.67
2018-12-15T12:20:45.637Z,5.79
2018-12-15T12:23:11.586Z,5.61
2018-12-15T12:25:37.571Z,5.65
2018-12-15T12:28:03.530Z,5.54
2018-12-15T12:30:29.545Z,5.72
2018-12-15T12:32:55.548Z,5.66
2018-12-15T12:35:21.505Z,5.79
2018-12-15T12:37:47.499Z,5.78
2018-12-15T12:40:13.483Z,5.66
2018-12-15T12:42:39.543Z,5.75
2018-12-15T12:45:05.587Z,5.81
2018-12-15T12:47:31.627Z,5.85
2018-12-15T12:49:57.611Z,5.89
2018-12-15T12:52:23.583Z,5.73
2018-12-15T12:54:49.607Z,5.64
2018-12-15T12:57:15.684Z,5.72
2018-12-15T12:59:41.644Z,5.68
2018-12-15T13:02:07.707Z,5.46
2018-12-15T13:04:33.802Z,5.56
2018-12-15T13:06:59.789Z,5.44
2018-12-15T13:09:26.400Z,5.49
2018-12-15T13:11:52.428Z,5.37
2018-12-15T13:14:18.958Z,5.25
2018-12-15T13:16:44.973Z,5.49
2018-12-15T13:19:10.936Z,5.52
2018-12-15T13:21:36.969Z,5.70
2018-12-15T13:24:03.092Z,5.55
2018-12-15T13:26:29.110Z,5.66
2018-12-15T13:28:55.161Z,5.60
2018-12-15T13:31:21.141Z,5.61
2018-12-15T13:33:47.152Z,5.62
2018-12-15T13:36:13.779Z,5.56
2018-12-15T13:38:39.914Z,5.51
2018-12-15T13:41:06.567Z,5.45
2018-12-15T13:43:32.639Z,5.34
2018-12-15T13:46:05.837Z,5.33
2018-12-15T13:48:31.863Z,5.39
2018-12-15T13:50:57.841Z,5.36
2018-12-15T13:53:23.924Z,5.36
2018-12-15T13:55:49.885Z,5.45
2018-12-15T13:58:15.983Z,5.09
2018-12-15T14:00:41.948Z,5.31
2018-12-15T14:03:07.981Z,5.12
2018-12-15T14:05:36.422Z,5.11
2018-12-15T14:08:02.501Z,5.09
2018-12-15T14:10:28.523Z,5.29
2018-12-15T14:12:54.619Z,5.23
2018-12-15T14:15:20.577Z,5.16
2018-12-15T14:17:46.580Z,5.32
2018-12-15T14:20:16.690Z,4.99
2018-12-15T14:22:40.716Z,5.04
2018-12-15T14:25:06.687Z,5.08
2018-12-15T14:27:32.765Z,4.86
2018-12-15T14:29:58.723Z,4.91
2018-12-15T14:32:24.747Z,5.01
2018-12-15T14:34:50.708Z,5.17
2018-12-15T14:37:16.717Z,5.26
2018-12-15T14:39:42.679Z,5.25
2018-12-15T14:42:08.671Z,5.19
2018-12-15T14:44:34.755Z,5.36
2018-12-15T14:47:00.700Z,5.35
2018-12-15T14:49:26.812Z,5.12
2018-12-15T14:51:52.780Z,5.31
2018-12-15T14:54:18.786Z,5.33
2018-12-15T14:56:44.799Z,5.26
2018-12-15T14:59:10.823Z,5.18
2018-12-15T15:01:36.792Z,5.24
2018-12-15T15:04:02.816Z,5.19
2018-12-15T15:06:28.802Z,5.31
2018-12-15T15:08:54.814Z,5.19
2018-12-15T15:11:20.760Z,5.06
2018-12-15T15:13:46.838Z,4.79
2018-12-15T15:16:12.796Z,5.11
2018-12-15T15:18:38.864Z,4.40
2018-12-15T15:21:04.866Z,4.81
2018-12-15T15:23:30.867Z,4.94
2018-12-15T15:25:56.814Z,5.10
2018-12-15T15:28:22.848Z,4.94
2018-12-15T15:30:48.805Z,5.19
2018-12-15T15:33:14.816Z,5.18
2018-12-15T15:35:40.780Z,5.11
2018-12-15T15:38:06.759Z,4.86
2018-12-15T15:40:32.759Z,5.10
2018-12-15T15:42:58.733Z,5.16
2018-12-15T15:45:24.758Z,5.07
2018-12-15T15:47:50.718Z,5.06
2018-12-15T15:50:16.701Z,5.23
2018-12-15T15:52:42.655Z,5.22
2018-12-15T15:55:08.681Z,5.25
2018-12-15T15:57:34.627Z,5.34
2018-12-15T16:00:00.899Z,5.20
2018-12-15T16:02:26.873Z,5.25
2018-12-15T16:04:52.921Z,4.92
2018-12-15T16:07:18.935Z,5.05
2018-12-15T16:09:45.200Z,5.19
2018-12-15T16:12:11.317Z,5.24
2018-12-15T16:14:37.305Z,5.16
2018-12-15T16:17:03.311Z,5.15
2018-12-15T16:19:29.271Z,5.11
2018-12-15T16:21:55.353Z,5.08
2018-12-15T16:24:28.241Z,4.94
2018-12-15T16:26:54.324Z,5.10
2018-12-15T16:29:20.308Z,5.04
2018-12-15T16:31:46.278Z,5.01
2018-12-15T16:34:12.272Z,5.05
2018-12-15T16:36:38.275Z,5.13
2018-12-15T16:39:05.556Z,5.15
2018-12-15T16:41:31.578Z,5.02
2018-12-15T16:43:57.560Z,4.98
2018-12-15T16:46:23.570Z,5.03
2018-12-15T16:48:49.558Z,5.01
2018-12-15T16:51:15.589Z,4.94
2018-12-15T16:53:41.553Z,4.63
2018-12-15T16:56:14.591Z,4.74
2018-12-15T16:58:40.649Z,5.03
2018-12-15T17:01:06.800Z,5.05
2018-12-15T17:03:32.793Z,5.12
2018-12-15T17:05:58.752Z,5.17
2018-12-15T17:08:24.744Z,5.24
2018-12-15T17:10:50.755Z,5.13
2018-12-15T17:13:16.809Z,5.09
2018-12-15T17:15:42.817Z,5.00
2018-12-15T17:18:08.815Z,5.05
2018-12-15T17:20:34.815Z,5.01
2018-12-15T17:23:00.893Z,5.21
2018-12-15T17:25:26.925Z,5.22
2018-12-15T17:27:52.905Z,5.05
2018-12-15T17:30:18.907Z,5.16
2018-12-15T17:32:44.960Z,5.27
2018-12-15T17:35:10.985Z,5.30
2018-12-15T17:37:36.967Z,5.37
2018-12-15T17:40:05.093Z,5.35
2018-12-15T17:42:31.115Z,5.27
2018-12-15T17:44:57.172Z,5.11
2018-12-15T17:47:23.184Z,4.95
2018-12-15T17:49:49.144Z,4.96
2018-12-15T17:52:15.379Z,5.05
2018-12-15T17:54:41.392Z,5.09
2018-12-15T17:57:08.079Z,5.00
2018-12-15T17:59:34.112Z,5.09
2018-12-15T18:02:00.292Z,5.02
2018-12-15T18:04:26.278Z,5.14
2018-12-15T18:06:52.277Z,5.15
2018-12-15T18:09:18.233Z,5.14
2018-12-15T18:11:44.232Z,5.23
2018-12-15T18:14:10.328Z,5.20
2018-12-15T18:16:36.306Z,5.26
2018-12-15T18:19:02.290Z,5.12
2018-12-15T18:21:28.289Z,4.97
2018-12-15T18:23:54.280Z,5.14
2018-12-15T18:26:20.376Z,5.27
2018-12-15T18:28:46.357Z,4.98
2018-12-15T18:31:12.367Z,5.16
2018-12-15T18:33:38.341Z,5.17
2018-12-15T18:36:04.369Z,4.97
2018-12-15T18:38:30.850Z,5.05
2018-12-15T18:40:56.843Z,5.23
2018-12-15T18:43:22.893Z,5.28
2018-12-15T18:45:49.129Z,4.89
2018-12-15T18:48:15.152Z,4.96
2018-12-15T18:50:48.075Z,4.65
2018-12-15T18:53:14.125Z,4.84
2018-12-15T18:55:40.106Z,4.81
2018-12-15T18:58:08.223Z,4.72
2018-12-15T19:00:34.189Z,4.78
2018-12-15T19:03:00.192Z,4.80
2018-12-15T19:05:26.184Z,4.82
2018-12-15T19:07:52.334Z,4.88
2018-12-15T19:10:18.310Z,4.89
2018-12-15T19:12:44.326Z,4.95
2018-12-15T19:15:10.418Z,4.63
2018-12-15T19:17:36.484Z,4.77
2018-12-15T19:20:03.104Z,4.55
2018-12-15T19:22:29.174Z,4.88
2018-12-15T19:24:59.242Z,4.47
2018-12-15T19:27:25.493Z,4.75
2018-12-15T19:29:51.690Z,4.62
2018-12-15T19:32:17.690Z,4.63
2018-12-15T19:34:43.670Z,4.63
2018-12-15T19:37:09.780Z,4.91
2018-12-15T19:39:35.796Z,4.72
2018-12-15T19:42:01.768Z,4.68
2018-12-15T19:44:27.794Z,4.74
2018-12-15T19:46:53.804Z,4.64
2018-12-15T19:49:19.796Z,4.62
2018-12-15T19:51:45.797Z,4.82
2018-12-15T19:54:11.929Z,4.99
2018-12-15T19:56:37.921Z,4.54
2018-12-15T19:59:03.895Z,4.71
2018-12-15T20:01:29.914Z,4.80
2018-12-15T20:03:55.945Z,4.89
2018-12-15T20:06:21.950Z,4.50
2018-12-15T20:08:49.051Z,4.82
2018-12-15T20:11:15.073Z,4.85
2018-12-15T20:13:41.075Z,4.98
2018-12-15T20:16:07.093Z,4.99
2018-12-15T20:18:34.812Z,5.00
2018-12-15T20:21:00.822Z,4.89
2018-12-15T20:23:26.835Z,4.64
2018-12-15T20:25:52.927Z,4.76
2018-12-15T20:28:18.937Z,4.93
2018-12-15T20:30:44.912Z,4.91
2018-12-15T20:33:10.931Z,4.49
2018-12-15T20:35:36.894Z,4.83
2018-12-15T20:38:03.004Z,4.56
2018-12-15T20:40:28.989Z,4.69
2018-12-15T20:42:55.022Z,4.58
2018-12-15T20:45:21.038Z,4.62
2018-12-15T20:47:47.111Z,4.81
2018-12-15T20:50:13.079Z,4.70
2018-12-15T20:52:39.087Z,4.92
2018-12-15T20:55:05.413Z,5.03
2018-12-15T20:57:31.535Z,4.82
2018-12-15T20:59:57.626Z,4.79
2018-12-15T21:02:23.712Z,4.76
2018-12-15T21:04:49.690Z,4.76
2018-12-15T21:07:15.646Z,4.85
2018-12-15T21:09:41.801Z,4.78
2018-12-15T21:12:07.953Z,4.77
2018-12-15T21:14:40.989Z,4.65
2018-12-15T21:17:07.100Z,4.28
2018-12-15T21:19:33.125Z,4.56
2018-12-15T21:21:59.133Z,4.18
2018-12-15T21:24:32.053Z,4.41
2018-12-15T21:26:58.023Z,4.26
2018-12-15T21:29:24.054Z,4.36
2018-12-15T21:31:56.434Z,4.40
2018-12-15T21:34:18.133Z,4.48
2018-12-15T21:36:44.151Z,4.39
2018-12-15T21:39:10.118Z,4.29
2018-12-15T21:41:36.132Z,4.36
2018-12-15T21:44:02.111Z,4.29
2018-12-15T21:46:28.117Z,4.34
2018-12-15T21:48:54.094Z,4.35
2018-12-15T21:51:20.075Z,4.24
2018-12-15T21:53:46.071Z,4.24
2018-12-15T21:56:12.136Z,4.29
2018-12-15T21:58:38.166Z,4.30
2018-12-15T22:01:11.035Z,4.09
2018-12-15T22:03:37.044Z,4.24
2018-12-15T22:06:03.042Z,4.16
2018-12-15T22:08:29.015Z,3.95
2018-12-15T22:10:54.964Z,3.87
2018-12-15T22:13:21.776Z,3.78
2018-12-15T22:15:47.855Z,4.10
2018-12-15T22:18:13.863Z,4.15
2018-12-15T22:20:40.164Z,4.07
2018-12-15T22:23:06.221Z,3.93
2018-12-15T22:25:32.164Z,4.01
2018-12-15T22:27:58.172Z,4.19
2018-12-15T22:30:24.130Z,4.01
2018-12-15T22:32:50.163Z,4.18
2018-12-15T22:35:16.188Z,3.63
2018-12-15T22:37:42.166Z,3.91
2018-12-15T22:40:08.201Z,3.89
2018-12-15T22:42:34.201Z,3.88
2018-12-15T22:45:00.144Z,3.98
2018-12-15T22:47:26.808Z,4.02
2018-12-15T22:49:52.776Z,3.56
2018-12-15T22:52:18.761Z,3.93
2018-12-15T22:54:44.738Z,3.84
2018-12-15T22:57:10.935Z,3.83
2018-12-15T22:59:37.023Z,4.08
2018-12-15T23:02:03.024Z,4.04
2018-12-15T23:04:29.086Z,4.15
2018-12-15T23:06:55.073Z,4.05
2018-12-15T23:09:21.065Z,4.17
2018-12-15T23:11:47.023Z,4.08
2018-12-15T23:14:13.047Z,4.20
2018-12-15T23:16:39.026Z,3.90
2018-12-15T23:19:05.209Z,3.96
2018-12-15T23:21:31.365Z,3.86
2018-12-15T23:23:57.373Z,3.88
2018-12-15T23:26:23.359Z,3.72
2018-12-15T23:28:49.311Z,3.73
2018-12-15T23:31:15.383Z,3.70
2018-12-15T23:33:41.369Z,4.11
2018-12-15T23:36:07.373Z,3.83
2018-12-15T23:38:33.449Z,3.76
2018-12-15T23:40:59.449Z,3.86
2018-12-15T23:43:25.417Z,3.50
2018-12-15T23:45:51.414Z,3.78
2018-12-15T23:48:17.941Z,3.72
2018-12-15T23:50:43.945Z,3.82
2018-12-15T23:53:09.953Z,3.78
2018-12-15T23:55:35.991Z,3.75
2018-12-15T23:58:01.980Z,3.77
